createdAt,value
2022-09-04T00:00:14.686Z,17.36
2022-09-04T00:02:51.495Z,17.39
2022-09-04T00:05:36.580Z,17.39
2022-09-04T00:08:28.866Z,17.37
2022-09-04T00:11:18.984Z,17.14
2022-09-04T00:13:51.418Z,17.31
2022-09-04T00:16:20.546Z,17.41
2022-09-04T00:19:03.914Z,17.48
2022-09-04T00:21:49.992Z,17.52
2022-09-04T00:24:29.008Z,17.69
2022-09-04T00:27:24.276Z,17.54
2022-09-04T00:30:02.530Z,17.57
2022-09-04T00:32:48.473Z,17.71
2022-09-04T00:35:23.548Z,17.69
2022-09-04T00:38:06.410Z,17.52
2022-09-04T00:40:47.825Z,17.70
2022-09-04T00:43:37.021Z,17.55
2022-09-04T00:46:22.811Z,17.48
2022-09-04T00:49:16.690Z,17.54
2022-09-04T00:52:15.130Z,17.53
2022-09-04T00:55:10.819Z,17.66
2022-09-04T00:58:00.557Z,17.50
2022-09-04T01:00:28.989Z,17.69
2022-09-04T01:03:20.884Z,17.74
2022-09-04T01:06:19.167Z,17.82
2022-09-04T01:09:05.149Z,17.87
2022-09-04T01:11:35.787Z,17.83
2022-09-04T01:14:13.367Z,17.87
2022-09-04T01:16:47.722Z,17.96
2022-09-04T01:19:29.022Z,18.01
2022-09-04T01:22:06.797Z,17.83
2022-09-04T01:24:43.722Z,17.91
2022-09-04T01:27:17.337Z,18.01
2022-09-04T01:30:08.158Z,17.99
2022-09-04T01:33:17.671Z,17.56
2022-09-04T01:35:56.154Z,17.51
2022-09-04T01:38:41.958Z,17.18
2022-09-04T01:41:24.424Z,17.70
2022-09-04T01:43:52.101Z,17.79
2022-09-04T01:46:43.958Z,17.85
2022-09-04T01:49:20.335Z,17.79
2022-09-04T01:52:00.324Z,17.97
2022-09-04T01:54:45.978Z,17.92
2022-09-04T01:57:34.852Z,17.87
2022-09-04T02:00:10.306Z,17.64
2022-09-04T02:02:57.133Z,17.79
2022-09-04T02:05:31.100Z,17.67
2022-09-04T02:08:17.347Z,17.65
2022-09-04T02:10:59.627Z,17.81
2022-09-04T02:13:34.200Z,18.07
2022-09-04T02:16:20.093Z,17.89
2022-09-04T02:19:19.897Z,17.90
2022-09-04T02:21:57.997Z,18.14
2022-09-04T02:24:46.983Z,17.91
2022-09-04T02:27:49.945Z,17.68
2022-09-04T02:30:18.853Z,17.81
2022-09-04T02:33:08.457Z,17.87
2022-09-04T02:35:36.099Z,17.67
2022-09-04T02:38:31.547Z,17.73
2022-09-04T02:40:59.246Z,17.81
2022-09-04T02:43:41.661Z,17.50
2022-09-04T02:46:17.681Z,17.66
2022-09-04T02:49:18.463Z,17.63
2022-09-04T02:51:56.423Z,17.86
2022-09-04T02:54:53.092Z,17.81
2022-09-04T02:57:40.746Z,17.84
2022-09-04T03:00:21.257Z,17.96
2022-09-04T03:03:17.521Z,17.95
2022-09-04T03:05:58.877Z,17.85
2022-09-04T03:08:36.986Z,17.53
2022-09-04T03:11:17.521Z,17.65
2022-09-04T03:14:09.885Z,17.72
2022-09-04T03:16:41.555Z,17.80
2022-09-04T03:19:21.406Z,17.75
2022-09-04T03:22:04.184Z,17.76
2022-09-04T03:24:50.147Z,17.54
2022-09-04T03:27:19.076Z,17.54
2022-09-04T03:30:01.369Z,17.40
2022-09-04T03:32:52.739Z,17.50
2022-09-04T03:35:37.849Z,17.68
2022-09-04T03:38:15.728Z,17.52
2022-09-04T03:41:11.849Z,17.57
2022-09-04T03:43:57.000Z,17.37
2022-09-04T03:46:30.907Z,17.56
2022-09-04T03:49:07.421Z,17.79
2022-09-04T03:51:53.688Z,17.71
2022-09-04T03:54:43.282Z,17.70
2022-09-04T03:57:35.826Z,17.58
2022-09-04T04:00:11.305Z,17.61
2022-09-04T04:03:03.356Z,17.49
2022-09-04T04:05:53.122Z,17.54
2022-09-04T04:08:42.345Z,17.51
2022-09-04T04:11:21.419Z,17.63
2022-09-04T04:13:58.171Z,17.40
2022-09-04T04:16:34.913Z,17.54
2022-09-04T04:19:20.702Z,17.77
2022-09-04T04:22:07.394Z,17.64
2022-09-04T04:24:57.530Z,17.71
2022-09-04T04:28:01.679Z,17.68
2022-09-04T04:30:44.906Z,17.60
2022-09-04T04:33:22.450Z,17.67
2022-09-04T04:35:57.437Z,17.85
2022-09-04T04:39:02.264Z,17.92
2022-09-04T04:42:06.611Z,18.02
2022-09-04T04:45:05.060Z,18.11
2022-09-04T04:47:48.513Z,18.15
2022-09-04T04:50:21.320Z,18.26
2022-09-04T04:53:21.239Z,18.24
2022-09-04T04:55:52.114Z,18.29
2022-09-04T04:58:45.091Z,18.29
2022-09-04T05:01:36.058Z,18.32
2022-09-04T05:04:30.128Z,18.49
2022-09-04T05:07:07.473Z,18.36
2022-09-04T05:09:42.557Z,18.58
2022-09-04T05:12:35.043Z,18.59
2022-09-04T05:15:13.685Z,18.53
2022-09-04T05:17:54.927Z,18.63
2022-09-04T05:20:49.888Z,18.61
2022-09-04T05:23:32.095Z,18.78
2022-09-04T05:26:11.157Z,18.76
2022-09-04T05:28:55.106Z,18.75
2022-09-04T05:31:43.603Z,18.72
2022-09-04T05:34:59.703Z,18.68
2022-09-04T05:37:45.357Z,18.78
2022-09-04T05:40:44.823Z,18.90
2022-09-04T05:43:39.350Z,18.89
2022-09-04T05:46:32.098Z,19.02
2022-09-04T05:49:41.165Z,18.90
2022-09-04T05:52:45.485Z,19.15
2022-09-04T05:55:17.562Z,18.96
2022-09-04T05:57:56.735Z,19.08
2022-09-04T06:00:24.900Z,19.05
2022-09-04T06:03:14.845Z,19.16
2022-09-04T06:06:10.769Z,19.04
2022-09-04T06:08:51.192Z,19.07
2022-09-04T06:11:44.155Z,19.10
2022-09-04T06:14:21.853Z,19.16
2022-09-04T06:17:12.860Z,19.13
2022-09-04T06:20:12.512Z,19.08
2022-09-04T06:23:18.172Z,18.97
2022-09-04T06:25:59.121Z,19.17
2022-09-04T06:29:08.662Z,19.15
2022-09-04T06:32:04.501Z,19.28
2022-09-04T06:35:04.309Z,19.35
2022-09-04T06:38:10.056Z,19.31
2022-09-04T06:41:13.456Z,19.42
2022-09-04T06:44:08.139Z,19.48
2022-09-04T06:46:59.030Z,19.54
2022-09-04T06:50:02.003Z,19.43
2022-09-04T06:53:07.431Z,19.93
2022-09-04T06:56:02.574Z,19.69
2022-09-04T06:58:56.055Z,19.64
2022-09-04T07:01:48.365Z,19.68
2022-09-04T07:04:41.715Z,19.78
2022-09-04T07:07:19.078Z,19.83
2022-09-04T07:09:50.600Z,19.73
2022-09-04T07:12:53.510Z,19.83
2022-09-04T07:15:43.972Z,19.88
2022-09-04T07:18:34.524Z,20.01
2022-09-04T07:21:18.959Z,20.04
2022-09-04T07:23:55.796Z,20.06
2022-09-04T07:26:30.136Z,20.16
2022-09-04T07:28:57.995Z,20.21
2022-09-04T07:31:34.795Z,20.22
2022-09-04T07:34:39.886Z,20.27
2022-09-04T07:37:34.218Z,20.32
2022-09-04T07:40:18.174Z,20.39
2022-09-04T07:42:52.484Z,20.51
2022-09-04T07:45:31.623Z,20.48
2022-09-04T07:48:20.114Z,20.33
2022-09-04T07:51:11.539Z,20.47
2022-09-04T07:53:48.674Z,20.49
2022-09-04T07:56:46.265Z,20.35
2022-09-04T07:59:29.153Z,20.33
2022-09-04T08:02:26.565Z,20.26
2022-09-04T08:05:14.832Z,20.33
2022-09-04T08:07:54.783Z,20.36
2022-09-04T08:10:22.843Z,20.48
2022-09-04T08:12:57.186Z,20.50
2022-09-04T08:15:52.677Z,20.51
2022-09-04T08:18:53.924Z,20.63
2022-09-04T08:21:36.975Z,20.74
2022-09-04T08:24:44.364Z,20.77
2022-09-04T08:27:15.414Z,20.80
2022-09-04T08:30:08.452Z,20.77
2022-09-04T08:33:11.144Z,20.88
2022-09-04T08:35:56.841Z,20.96
2022-09-04T08:38:55.667Z,20.94
2022-09-04T08:41:29.638Z,21.04
2022-09-04T08:44:38.968Z,20.92
2022-09-04T08:47:06.614Z,21.09
2022-09-04T08:49:54.325Z,21.02
2022-09-04T08:52:40.363Z,21.10
2022-09-04T08:55:47.052Z,21.26
2022-09-04T08:58:47.859Z,21.18
2022-09-04T09:01:35.913Z,21.22
2022-09-04T09:04:44.094Z,21.28
2022-09-04T09:07:33.943Z,21.32
2022-09-04T09:10:20.669Z,21.21
2022-09-04T09:13:10.597Z,21.22
2022-09-04T09:16:02.768Z,21.30
2022-09-04T09:18:41.789Z,21.28
2022-09-04T09:21:13.305Z,21.27
2022-09-04T09:23:47.215Z,21.31
2022-09-04T09:26:26.899Z,21.15
2022-09-04T09:29:10.138Z,21.32
2022-09-04T09:32:03.779Z,21.42
2022-09-04T09:35:08.966Z,21.54
2022-09-04T09:38:00.008Z,21.57
2022-09-04T09:40:43.364Z,21.64
2022-09-04T09:43:24.508Z,21.71
2022-09-04T09:46:29.719Z,21.77
2022-09-04T09:49:03.699Z,21.80
2022-09-04T09:52:30.710Z,21.84
2022-09-04T09:55:16.995Z,21.87
2022-09-04T09:58:07.687Z,21.84
2022-09-04T10:01:08.338Z,21.80
2022-09-04T10:03:55.433Z,21.87
2022-09-04T10:06:53.015Z,21.87
2022-09-04T10:09:59.333Z,21.88
2022-09-04T10:12:50.332Z,21.87
2022-09-04T10:15:48.507Z,21.84
2022-09-04T10:19:07.418Z,21.74
2022-09-04T10:22:00.262Z,21.71
2022-09-04T10:24:44.404Z,21.75
2022-09-04T10:27:34.866Z,21.72
2022-09-04T10:30:10.700Z,21.64
2022-09-04T10:32:51.353Z,21.69
2022-09-04T10:35:25.481Z,21.67
2022-09-04T10:38:34.764Z,21.59
2022-09-04T10:41:30.272Z,21.51
2022-09-04T10:44:20.126Z,21.34
2022-09-04T10:47:07.659Z,21.24
2022-09-04T10:50:17.515Z,21.06
2022-09-04T10:53:31.389Z,21.14
2022-09-04T10:56:21.101Z,21.25
2022-09-04T10:58:58.282Z,21.21
2022-09-04T11:01:38.186Z,21.18
2022-09-04T11:04:49.711Z,21.25
2022-09-04T11:07:46.899Z,21.31
2022-09-04T11:10:36.952Z,21.33
2022-09-04T11:13:55.246Z,21.46
2022-09-04T11:16:37.267Z,21.61
2022-09-04T11:19:34.007Z,21.77
2022-09-04T11:22:28.493Z,21.89
2022-09-04T11:25:43.030Z,21.94
2022-09-04T11:28:20.483Z,22.07
2022-09-04T11:30:54.215Z,22.11
2022-09-04T11:34:01.694Z,22.16
2022-09-04T11:36:43.724Z,22.32
2022-09-04T11:39:37.678Z,22.34
2022-09-04T11:42:26.829Z,22.31
2022-09-04T11:45:21.359Z,22.33
2022-09-04T11:47:58.402Z,22.27
2022-09-04T11:51:03.775Z,22.33
2022-09-04T11:53:43.644Z,22.35
2022-09-04T11:56:33.246Z,22.38
2022-09-04T11:59:10.682Z,22.40
2022-09-04T12:01:47.699Z,22.46
2022-09-04T12:04:57.032Z,22.48
2022-09-04T12:08:04.757Z,22.60
2022-09-04T12:10:56.824Z,22.61
2022-09-04T12:13:44.363Z,22.70
2022-09-04T12:16:44.596Z,22.73
2022-09-04T12:19:49.137Z,22.82
2022-09-04T12:22:36.949Z,22.92
2022-09-04T12:25:32.419Z,22.98
2022-09-04T12:28:29.337Z,23.00
2022-09-04T12:31:10.900Z,23.15
2022-09-04T12:34:19.659Z,23.28
2022-09-04T12:37:20.234Z,23.30
2022-09-04T12:40:07.324Z,23.39
2022-09-04T12:42:43.422Z,23.50
2022-09-04T12:45:46.065Z,23.62
2022-09-04T12:48:33.688Z,23.73
2022-09-04T12:51:14.301Z,23.75
2022-09-04T12:54:04.823Z,23.85
2022-09-04T12:56:49.011Z,23.86
2022-09-04T12:59:33.800Z,23.92
2022-09-04T13:02:24.473Z,24.15
2022-09-04T13:05:30.699Z,24.01
2022-09-04T13:07:59.220Z,24.10
2022-09-04T13:10:45.002Z,24.35
2022-09-04T13:13:23.485Z,24.58
2022-09-04T13:16:09.892Z,24.83
2022-09-04T13:18:41.306Z,24.87
2022-09-04T13:21:25.533Z,25.13
2022-09-04T13:24:11.824Z,25.07
2022-09-04T13:27:00.789Z,25.17
2022-09-04T13:29:41.883Z,25.06
2022-09-04T13:32:18.889Z,25.06
2022-09-04T13:35:41.342Z,25.09
2022-09-04T13:38:38.605Z,25.05
2022-09-04T13:41:18.811Z,25.10
2022-09-04T13:44:00.942Z,25.19
2022-09-04T13:46:35.436Z,25.51
2022-09-04T13:49:28.046Z,25.67
2022-09-04T13:52:34.527Z,25.83
2022-09-04T13:55:21.694Z,26.02
2022-09-04T13:58:14.161Z,26.20
2022-09-04T14:01:00.934Z,26.25
2022-09-04T14:03:47.705Z,26.34
2022-09-04T14:06:20.972Z,26.43
2022-09-04T14:08:57.949Z,26.57
2022-09-04T14:11:54.579Z,26.64
2022-09-04T14:14:43.807Z,26.71
2022-09-04T14:17:14.380Z,26.80
2022-09-04T14:20:00.062Z,26.77
2022-09-04T14:22:40.023Z,26.81
2022-09-04T14:25:17.591Z,26.54
2022-09-04T14:27:55.591Z,26.68
2022-09-04T14:30:25.192Z,26.26
2022-09-04T14:33:35.664Z,26.32
2022-09-04T14:36:16.762Z,26.12
2022-09-04T14:39:04.517Z,25.98
2022-09-04T14:41:45.232Z,26.09
2022-09-04T14:44:22.724Z,26.11
2022-09-04T14:47:02.712Z,26.01
2022-09-04T14:49:34.700Z,26.11
2022-09-04T14:52:21.910Z,25.97
2022-09-04T14:55:01.328Z,25.84
2022-09-04T14:57:44.753Z,25.88
2022-09-04T15:00:36.970Z,25.91
2022-09-04T15:03:23.160Z,25.85
2022-09-04T15:05:58.335Z,25.81
2022-09-04T15:08:40.200Z,25.77
2022-09-04T15:11:13.700Z,25.94
2022-09-04T15:14:00.310Z,25.97
2022-09-04T15:16:47.030Z,26.03
2022-09-04T15:19:36.101Z,25.94
2022-09-04T15:22:11.714Z,25.88
2022-09-04T15:25:04.296Z,25.65
2022-09-04T15:27:50.190Z,25.66
2022-09-04T15:30:29.634Z,25.48
2022-09-04T15:33:18.944Z,25.47
2022-09-04T15:36:04.531Z,25.52
2022-09-04T15:38:35.485Z,25.50
2022-09-04T15:41:22.304Z,25.51
2022-09-04T15:43:53.728Z,25.38
2022-09-04T15:46:40.977Z,25.25
2022-09-04T15:49:42.418Z,25.22
2022-09-04T15:52:25.413Z,25.30
2022-09-04T15:55:25.695Z,25.29
2022-09-04T15:58:53.470Z,25.30
2022-09-04T16:02:01.213Z,25.21
2022-09-04T16:04:57.738Z,25.08
2022-09-04T16:07:34.325Z,25.15
2022-09-04T16:10:19.111Z,25.09
2022-09-04T16:13:25.445Z,25.05
2022-09-04T16:16:10.126Z,25.00
2022-09-04T16:18:50.047Z,25.25
2022-09-04T16:21:29.141Z,24.84
2022-09-04T16:24:18.690Z,24.95
2022-09-04T16:26:53.435Z,24.83
2022-09-04T16:29:26.547Z,24.66
2022-09-04T16:31:57.432Z,24.57
2022-09-04T16:34:55.059Z,24.57
2022-09-04T16:37:31.795Z,24.51
2022-09-04T16:40:32.172Z,24.39
2022-09-04T16:43:03.136Z,24.24
2022-09-04T16:46:06.546Z,24.13
2022-09-04T16:48:54.672Z,23.84
2022-09-04T16:52:16.334Z,23.82
2022-09-04T16:55:03.626Z,23.66
2022-09-04T16:58:07.462Z,23.45
2022-09-04T17:01:14.162Z,23.48
2022-09-04T17:04:14.955Z,23.29
2022-09-04T17:07:04.394Z,23.34
2022-09-04T17:09:38.748Z,22.73
2022-09-04T17:12:22.079Z,22.54
2022-09-04T17:14:59.444Z,22.66
2022-09-04T17:17:32.338Z,22.80
2022-09-04T17:20:22.081Z,22.66
2022-09-04T17:28:55.422Z,22.43
2022-09-04T17:29:18.362Z,22.35
2022-09-04T17:29:43.114Z,22.33
2022-09-04T17:34:07.058Z,22.09
2022-09-04T17:40:52.230Z,21.75
2022-09-04T17:40:57.404Z,21.90
2022-09-04T17:42:08.455Z,21.79
2022-09-04T17:44:46.977Z,21.75
2022-09-04T17:47:34.771Z,21.68
2022-09-04T17:50:03.175Z,22.01
2022-09-04T17:52:53.020Z,21.90
2022-09-04T17:55:23.425Z,21.82
2022-09-04T17:58:06.521Z,22.06
2022-09-04T18:00:51.468Z,21.66
2022-09-04T18:03:27.377Z,21.72
2022-09-04T18:06:08.122Z,21.71
2022-09-04T18:09:11.115Z,21.64
2022-09-04T18:12:00.211Z,21.45
2022-09-04T18:14:38.348Z,21.09
2022-09-04T18:17:23.887Z,21.39
2022-09-04T18:19:58.891Z,21.27
2022-09-04T18:22:46.311Z,21.18
2022-09-04T18:25:44.805Z,21.03
2022-09-04T18:28:22.712Z,21.09
2022-09-04T18:37:07.125Z,21.08
2022-09-04T18:37:25.322Z,20.91
2022-09-04T18:37:46.598Z,20.75
2022-09-04T18:41:02.147Z,20.85
2022-09-04T18:50:29.725Z,20.92
2022-09-04T18:50:31.177Z,20.80
2022-09-04T18:50:32.727Z,20.65
2022-09-04T18:52:19.059Z,20.94
2022-09-04T18:54:57.367Z,20.94
2022-09-04T18:57:35.072Z,20.97
2022-09-04T19:00:12.959Z,21.02
2022-09-04T19:02:53.970Z,21.04
2022-09-04T19:05:27.160Z,21.11
2022-09-04T19:08:05.767Z,21.19
2022-09-04T19:10:51.380Z,21.01
2022-09-04T19:13:49.485Z,21.06
2022-09-04T19:16:38.940Z,21.04
2022-09-04T19:19:17.571Z,21.01
2022-09-04T19:21:57.894Z,20.99
2022-09-04T19:24:52.023Z,21.08
2022-09-04T19:27:32.244Z,21.08
2022-09-04T19:30:25.092Z,21.07
2022-09-04T19:33:03.390Z,21.04
2022-09-04T19:35:32.666Z,21.02
2022-09-04T19:42:54.344Z,21.01
2022-09-04T19:45:57.875Z,20.79
2022-09-04T19:46:15.955Z,20.70
2022-09-04T19:47:51.800Z,20.88
2022-09-04T19:53:18.952Z,20.96
2022-09-04T19:53:36.358Z,20.85
2022-09-04T19:56:15.627Z,20.83
2022-09-04T19:58:53.003Z,20.75
2022-09-04T20:01:26.659Z,20.80
2022-09-04T20:04:10.674Z,20.97
2022-09-04T20:06:47.751Z,20.76
2022-09-04T20:09:26.412Z,20.71
2022-09-04T20:12:40.443Z,20.69
2022-09-04T20:15:18.683Z,20.37
2022-09-04T20:18:10.662Z,20.51
2022-09-04T20:20:47.969Z,20.66
2022-09-04T20:23:37.636Z,20.53
2022-09-04T20:26:09.668Z,20.57
2022-09-04T20:29:16.543Z,20.53
2022-09-04T20:31:51.842Z,20.36
2022-09-04T20:34:29.974Z,20.60
2022-09-04T20:37:20.518Z,20.63
2022-09-04T20:40:15.203Z,20.65
2022-09-04T20:42:56.523Z,20.57
2022-09-04T20:47:11.362Z,20.43
2022-09-04T20:52:51.809Z,20.60
2022-09-04T20:52:52.230Z,20.44
2022-09-04T20:54:50.988Z,20.63
2022-09-04T21:02:23.137Z,20.68
2022-09-04T21:03:23.715Z,20.48
2022-09-04T21:03:57.391Z,20.46
2022-09-04T21:06:34.881Z,20.34
2022-09-04T21:09:11.038Z,20.27
2022-09-04T21:11:51.953Z,20.26
2022-09-04T21:14:44.909Z,20.48
2022-09-04T21:17:37.176Z,20.51
2022-09-04T21:20:16.788Z,20.35
2022-09-04T21:23:09.820Z,20.01
2022-09-04T21:26:22.008Z,19.61
2022-09-04T21:29:09.114Z,19.61
2022-09-04T21:32:00.073Z,19.77
2022-09-04T21:34:53.972Z,19.95
2022-09-04T21:38:17.689Z,19.67
2022-09-04T21:41:03.489Z,19.79
2022-09-04T21:44:11.183Z,19.72
2022-09-04T21:47:08.734Z,19.48
2022-09-04T21:49:42.439Z,19.61
2022-09-04T21:52:24.646Z,19.52
2022-09-04T21:56:38.101Z,19.61
2022-09-04T22:02:31.024Z,19.33
2022-09-04T22:02:36.660Z,19.43
2022-09-04T22:04:17.197Z,19.17
2022-09-04T22:10:26.219Z,19.11
2022-09-04T22:13:46.421Z,19.44
2022-09-04T22:13:46.653Z,19.21
2022-09-04T22:16:01.827Z,19.09
2022-09-04T22:19:16.288Z,19.13
2022-09-04T22:22:10.364Z,18.72
2022-09-04T22:25:06.371Z,18.83
2022-09-04T22:28:07.479Z,18.89
2022-09-04T22:31:11.319Z,18.76
2022-09-04T22:34:17.572Z,18.91
2022-09-04T22:37:23.110Z,19.00
2022-09-04T22:40:12.675Z,19.14
2022-09-04T22:43:02.530Z,18.74
2022-09-04T22:45:39.427Z,18.86
2022-09-04T22:48:49.159Z,18.70
2022-09-04T22:51:43.601Z,18.71
2022-09-04T22:54:23.265Z,18.75
2022-09-04T22:57:06.289Z,18.65
2022-09-04T22:59:55.572Z,18.67
2022-09-04T23:02:54.146Z,18.64
2022-09-04T23:05:39.977Z,18.46
2022-09-04T23:13:41.862Z,18.47
2022-09-04T23:13:49.607Z,18.62
2022-09-04T23:14:22.574Z,18.18
2022-09-04T23:17:05.198Z,18.51
2022-09-04T23:23:36.405Z,18.51
2022-09-04T23:26:50.176Z,18.28
2022-09-04T23:26:51.090Z,18.65
2022-09-04T23:29:41.096Z,18.71
2022-09-04T23:32:40.437Z,18.55
2022-09-04T23:35:40.588Z,18.31
2022-09-04T23:38:26.580Z,18.36
2022-09-04T23:41:25.420Z,18.25
2022-09-04T23:44:32.050Z,18.40
2022-09-04T23:47:46.864Z,18.13
2022-09-04T23:50:35.045Z,18.10
2022-09-04T23:53:08.512Z,17.78
2022-09-04T23:55:49.114Z,18.02
2022-09-04T23:59:03.181Z,17.83
